createdAt,value
2023-04-10T00:03:49.047Z,68.14
2023-04-10T00:13:42.571Z,67.94
2023-04-10T00:18:55.520Z,68.05
2023-04-10T00:24:02.210Z,68.48
2023-04-10T00:29:07.932Z,68.50
2023-04-10T00:34:14.975Z,68.53
2023-04-10T00:39:29.648Z,68.83
2023-04-10T00:44:40.448Z,69.06
2023-04-10T00:49:56.494Z,69.38
2023-04-10T00:55:17.104Z,69.61
2023-04-10T01:00:26.986Z,68.85
2023-04-10T01:05:31.870Z,68.80
2023-04-10T01:11:08.399Z,69.10
2023-04-10T01:16:30.527Z,69.59
2023-04-10T01:21:43.464Z,69.53
2023-04-10T01:26:47.453Z,70.05
2023-04-10T01:32:02.180Z,69.75
2023-04-10T01:37:06.306Z,70.05
2023-04-10T01:41:34.822Z,69.97
2023-04-10T01:46:40.861Z,70.05
2023-04-10T01:51:58.559Z,69.87
2023-04-10T01:57:08.221Z,70.15
2023-04-10T02:02:12.329Z,70.15
2023-04-10T02:07:23.528Z,70.50
2023-04-10T02:12:46.506Z,70.22
2023-04-10T02:17:53.434Z,70.09
2023-04-10T02:22:59.389Z,70.66
2023-04-10T02:28:12.476Z,71.20
2023-04-10T02:33:19.483Z,71.31
2023-04-10T02:38:29.134Z,70.99
2023-04-10T02:43:50.544Z,70.93
2023-04-10T02:48:52.949Z,71.37
2023-04-10T02:53:56.800Z,71.03
2023-04-10T02:58:40.712Z,70.92
2023-04-10T03:03:50.829Z,71.03
2023-04-10T03:08:55.546Z,71.05
2023-04-10T03:14:09.381Z,70.98
2023-04-10T03:19:26.692Z,70.72
2023-04-10T03:24:32.700Z,71.05
2023-04-10T03:29:51.394Z,70.99
2023-04-10T03:35:06.269Z,70.65
2023-04-10T03:39:43.099Z,70.31
2023-04-10T03:44:54.346Z,70.74
2023-04-10T03:49:38.041Z,70.78
2023-04-10T03:55:02.295Z,71.10
2023-04-10T04:04:44.564Z,70.94
2023-04-10T04:10:10.567Z,70.88
2023-04-10T04:15:27.328Z,71.52
2023-04-10T04:20:29.866Z,71.54
2023-04-10T04:25:34.888Z,72.07
2023-04-10T04:30:44.416Z,72.01
2023-04-10T04:36:00.779Z,71.86
2023-04-10T04:41:27.227Z,71.76
2023-04-10T04:46:41.096Z,72.41
2023-04-10T04:52:01.256Z,72.35
2023-04-10T04:57:17.980Z,72.27
2023-04-10T05:02:42.038Z,72.32
2023-04-10T05:08:04.441Z,72.26
2023-04-10T05:13:07.007Z,72.04
2023-04-10T05:18:33.773Z,71.54
2023-04-10T05:23:33.861Z,71.30
2023-04-10T05:28:52.066Z,70.86
2023-04-10T05:33:59.628Z,70.40
2023-04-10T05:39:09.932Z,69.94
2023-04-10T05:44:25.797Z,69.79
2023-04-10T05:49:16.827Z,70.00
2023-04-10T05:54:05.047Z,69.66
2023-04-10T05:59:20.363Z,69.20
2023-04-10T06:04:30.629Z,68.95
2023-04-10T06:09:47.894Z,68.19
2023-04-10T06:14:33.763Z,67.61
2023-04-10T06:19:04.572Z,66.63
2023-04-10T06:24:22.578Z,66.83
2023-04-10T06:28:46.105Z,66.38
2023-04-10T06:33:19.140Z,65.90
2023-04-10T06:37:50.906Z,64.98
2023-04-10T06:43:01.911Z,65.44
2023-04-10T06:47:34.531Z,65.06
2023-04-10T06:52:03.893Z,64.68
2023-04-10T06:56:50.904Z,63.68
2023-04-10T07:00:56.750Z,64.36
2023-04-10T07:05:31.105Z,64.24
2023-04-10T07:10:08.031Z,63.44
2023-04-10T07:14:31.108Z,63.81
2023-04-10T07:19:17.816Z,63.76
2023-04-10T07:23:42.172Z,63.39
2023-04-10T07:28:24.182Z,63.16
2023-04-10T07:32:49.282Z,62.86
2023-04-10T07:37:13.054Z,62.62
2023-04-10T07:41:47.090Z,62.90
2023-04-10T07:46:20.222Z,63.21
2023-04-10T07:50:44.344Z,63.49
2023-04-10T07:55:51.288Z,63.52
2023-04-10T08:00:16.158Z,63.04
2023-04-10T08:04:42.294Z,62.57
2023-04-10T08:09:06.336Z,62.37
2023-04-10T08:14:34.864Z,62.09
2023-04-10T08:20:14.933Z,62.49
2023-04-10T08:25:15.581Z,62.85
2023-04-10T08:29:35.908Z,63.85
2023-04-10T08:39:44.268Z,63.17
2023-04-10T08:44:35.748Z,63.51
2023-04-10T08:59:48.810Z,62.49
2023-04-10T09:04:35.279Z,62.44
2023-04-10T09:09:49.754Z,61.58
2023-04-10T09:15:00.750Z,61.58
2023-04-10T09:20:38.984Z,60.98
2023-04-10T09:25:51.383Z,61.12
2023-04-10T09:30:55.958Z,60.19
2023-04-10T09:36:18.069Z,59.93
2023-04-10T09:41:35.964Z,60.20
2023-04-10T09:46:28.228Z,59.65
2023-04-10T09:51:23.238Z,59.43
2023-04-10T09:56:07.816Z,58.57
2023-04-10T10:00:26.464Z,58.56
2023-04-10T10:05:13.171Z,57.06
2023-04-10T10:44:49.276Z,52.69
2023-04-10T10:50:04.103Z,52.77
2023-04-10T10:55:29.705Z,51.23
2023-04-10T11:00:23.386Z,50.25
2023-04-10T11:05:46.009Z,50.95
2023-04-10T11:10:51.909Z,50.79
2023-04-10T11:15:43.292Z,50.37
2023-04-10T11:21:04.639Z,49.69
2023-04-10T11:26:11.005Z,49.52
2023-04-10T11:36:55.679Z,49.36
2023-04-10T11:42:33.292Z,49.35
2023-04-10T11:47:56.896Z,47.15
2023-04-10T11:53:02.024Z,47.89
2023-04-10T12:02:47.585Z,48.58
2023-04-10T12:13:18.853Z,48.42
2023-04-10T12:18:26.266Z,48.69
2023-04-10T12:23:41.399Z,48.78
2023-04-10T12:29:10.741Z,49.15
2023-04-10T12:34:14.606Z,48.86
2023-04-10T12:50:16.475Z,47.40
2023-04-10T12:55:44.703Z,48.02
2023-04-10T13:06:41.186Z,48.21
2023-04-10T13:17:42.033Z,46.49
2023-04-10T13:28:10.043Z,47.10
2023-04-10T13:32:54.326Z,47.22
2023-04-10T13:38:11.741Z,47.40
2023-04-10T14:00:18.638Z,49.82
2023-04-10T14:22:17.882Z,55.67
2023-04-10T14:27:43.690Z,56.56
2023-04-10T14:32:46.716Z,55.43
2023-04-10T14:37:53.458Z,54.80
2023-04-10T14:42:47.569Z,53.72
2023-04-10T14:47:25.616Z,53.04
2023-04-10T14:56:57.746Z,51.21
2023-04-10T15:28:51.995Z,51.85
2023-04-10T15:49:59.194Z,51.39
2023-04-10T16:00:11.080Z,51.52
2023-04-10T16:10:49.403Z,52.17
2023-04-10T16:15:22.266Z,52.36
2023-04-10T16:35:19.785Z,54.19
2023-04-10T16:39:42.274Z,54.41
2023-04-10T16:44:19.824Z,54.52
2023-04-10T16:49:12.553Z,54.64
2023-04-10T16:59:00.676Z,55.56
2023-04-10T17:03:23.386Z,55.93
2023-04-10T17:13:40.107Z,57.35
2023-04-10T17:28:34.206Z,57.57
2023-04-10T17:33:09.913Z,57.70
2023-04-10T17:37:39.610Z,58.33
2023-04-10T17:42:15.829Z,58.29
2023-04-10T17:57:19.282Z,60.16
2023-04-10T18:01:48.841Z,60.44
2023-04-10T18:06:37.585Z,60.36
2023-04-10T18:10:46.981Z,60.31
2023-04-10T18:15:11.291Z,60.32
2023-04-10T18:19:46.112Z,60.29
2023-04-10T18:24:25.427Z,60.84
2023-04-10T18:35:04.606Z,60.96
2023-04-10T19:07:47.247Z,61.91
2023-04-10T19:12:20.319Z,61.97
2023-04-10T19:27:40.299Z,62.13
2023-04-10T19:32:05.358Z,62.40
2023-04-10T19:36:57.618Z,62.70
2023-04-10T19:41:24.166Z,62.73
2023-04-10T19:45:59.811Z,62.79
2023-04-10T19:50:34.920Z,62.68
2023-04-10T19:55:16.937Z,62.98
2023-04-10T19:59:55.934Z,63.23
2023-04-10T20:04:30.174Z,63.29
2023-04-10T20:09:11.532Z,63.42
2023-04-10T20:14:14.822Z,63.50
2023-04-10T20:18:48.776Z,63.87
2023-04-10T20:23:31.444Z,64.20
2023-04-10T20:27:54.864Z,64.40
2023-04-10T20:37:51.325Z,65.02
2023-04-10T20:47:59.255Z,65.18
2023-04-10T21:08:53.409Z,65.71
2023-04-10T21:14:08.527Z,65.43
2023-04-10T21:18:46.144Z,65.44
2023-04-10T21:39:28.653Z,66.48
2023-04-10T21:43:51.928Z,66.88
2023-04-10T21:53:19.589Z,66.38
2023-04-10T21:57:49.271Z,66.43
2023-04-10T22:02:25.587Z,66.71
2023-04-10T22:06:51.963Z,66.59
2023-04-10T22:11:57.371Z,66.49
2023-04-10T22:16:07.101Z,66.65
2023-04-10T22:25:57.211Z,66.83
2023-04-10T22:30:31.201Z,66.68
2023-04-10T22:35:28.301Z,66.82
2023-04-10T22:39:53.484Z,67.04
2023-04-10T22:54:28.854Z,67.36
2023-04-10T22:59:02.904Z,67.29
2023-04-10T23:03:37.205Z,67.40
2023-04-10T23:08:07.752Z,67.26
2023-04-10T23:12:50.124Z,67.46
2023-04-10T23:18:04.904Z,67.83
2023-04-10T23:29:01.659Z,67.79
2023-04-10T23:34:29.786Z,67.79
2023-04-10T23:44:07.988Z,68.32
2023-04-10T23:48:43.587Z,68.12
2023-04-10T23:54:03.545Z,68.21
